Time;durP1;ratioP1;P1;durP2;ratioP2;P2;SDS_P1;SDS_P2;PMS_P1;PMS_P2;Temp;Humidity;BMP_temperature;BMP_pressure;BME280_temperature;BME280_humidity;BME280_pressure;Samples;Min_cycle;Max_cycle;Signal;HPM_P1;HPM_P2
2021/10/09 00:00:34;;;;;;;13.07;11.07;;;8.10;99.90;;;;;;5012769;28;20225;-65
2021/10/09 00:03:00;;;;;;;13.03;11.43;;;8.00;99.90;;;;;;5013038;28;20213;-66
2021/10/09 00:05:25;;;;;;;14.77;11.63;;;7.90;99.90;;;;;;4995333;28;20169;-64
2021/10/09 00:07:51;;;;;;;13.13;10.20;;;7.90;99.90;;;;;;5012682;28;20665;-64
2021/10/09 00:10:28;;;;;;;14.77;12.10;;;7.90;99.90;;;;;;5012655;28;20200;-65
2021/10/09 00:12:54;;;;;;;10.57;9.37;;;7.80;99.90;;;;;;5012864;28;20382;-64
2021/10/09 00:15:20;;;;;;;13.10;10.87;;;7.70;99.90;;;;;;5012500;28;20459;-65
2021/10/09 00:17:46;;;;;;;12.10;10.90;;;7.80;99.90;;;;;;5017791;28;20424;-64
2021/10/09 00:20:12;;;;;;;16.07;12.53;;;7.70;99.90;;;;;;5013792;28;20428;-63
2021/10/09 00:22:37;;;;;;;14.03;10.80;;;7.70;99.90;;;;;;5016978;28;20226;-65
2021/10/09 00:25:05;;;;;;;12.20;10.30;;;7.70;99.90;;;;;;5021919;28;20195;-64
2021/10/09 00:27:30;;;;;;;15.93;11.57;;;7.70;99.90;;;;;;5018083;28;20184;-65
2021/10/09 00:29:56;;;;;;;14.57;11.10;;;7.60;99.90;;;;;;5014801;28;20435;-65
2021/10/09 00:32:21;;;;;;;12.10;9.63;;;7.60;99.90;;;;;;5019780;28;20649;-62
2021/10/09 00:34:47;;;;;;;13.50;10.40;;;7.50;99.90;;;;;;5012764;28;20203;-64
2021/10/09 00:37:12;;;;;;;13.80;10.73;;;7.50;99.90;;;;;;5012444;28;20573;-64
2021/10/09 00:39:38;;;;;;;13.70;10.87;;;7.50;99.90;;;;;;5012359;28;20240;-64
2021/10/09 00:42:05;;;;;;;13.40;10.77;;;7.50;99.90;;;;;;4995069;28;20169;-64
2021/10/09 00:44:30;;;;;;;12.10;10.37;;;7.40;99.90;;;;;;5011365;28;20644;-64
2021/10/09 00:47:01;;;;;;;13.40;10.63;;;7.40;99.90;;;;;;5012217;28;20443;-64
2021/10/09 00:49:27;;;;;;;15.40;10.70;;;7.30;99.90;;;;;;5012055;28;20566;-63
2021/10/09 00:51:54;;;;;;;11.83;10.70;;;7.30;99.90;;;;;;5012002;28;21084;-63
2021/10/09 00:54:20;;;;;;;13.00;10.50;;;7.30;99.90;;;;;;5012013;28;20535;-64
2021/10/09 00:56:47;;;;;;;10.70;9.57;;;7.20;99.90;;;;;;5012095;28;20851;-64
2021/10/09 00:59:14;;;;;;;11.60;9.17;;;7.20;99.90;;;;;;5011637;28;20474;-61
2021/10/09 01:01:41;;;;;;;12.23;10.10;;;7.20;99.90;;;;;;5014405;28;20412;-62
2021/10/09 01:04:08;;;;;;;9.53;8.53;;;7.10;99.90;;;;;;5014945;28;20471;-65
2021/10/09 01:06:34;;;;;;;9.00;8.10;;;7.00;99.90;;;;;;5013353;28;21039;-64
2021/10/09 01:09:03;;;;;;;12.87;10.20;;;7.00;99.90;;;;;;5013901;28;20436;-65
2021/10/09 01:11:29;;;;;;;11.47;10.20;;;7.00;99.90;;;;;;5015099;28;20412;-65
2021/10/09 01:13:55;;;;;;;11.10;9.43;;;7.00;99.90;;;;;;5014642;28;20452;-64
2021/10/09 01:16:24;;;;;;;11.93;9.73;;;6.90;99.90;;;;;;5011917;28;20472;-64
2021/10/09 01:18:54;;;;;;;11.20;9.00;;;6.90;99.90;;;;;;5011432;28;20424;-64
2021/10/09 01:21:21;;;;;;;13.73;10.60;;;6.80;99.90;;;;;;5013762;28;20416;-64
2021/10/09 01:23:49;;;;;;;14.67;12.93;;;6.80;99.90;;;;;;5012130;28;20400;-64
2021/10/09 01:26:15;;;;;;;14.40;12.30;;;6.80;99.90;;;;;;5013662;28;20411;-64
2021/10/09 01:28:50;;;;;;;14.17;11.70;;;6.80;99.90;;;;;;5012754;28;20408;-63
2021/10/09 01:31:17;;;;;;;12.20;10.90;;;6.80;99.90;;;;;;5011833;28;20833;-64
2021/10/09 01:33:43;;;;;;;12.80;10.87;;;6.80;99.90;;;;;;5011789;28;20877;-64
2021/10/09 01:36:10;;;;;;;11.53;10.20;;;6.80;99.90;;;;;;5013153;28;20415;-63
2021/10/09 01:38:35;;;;;;;12.87;10.40;;;6.70;99.90;;;;;;5012132;28;20820;-63
2021/10/09 01:41:02;;;;;;;15.47;10.43;;;6.60;99.90;;;;;;5013228;28;20416;-64
2021/10/09 01:43:28;;;;;;;10.00;9.00;;;6.60;99.90;;;;;;5013224;28;20180;-64
2021/10/09 01:45:54;;;;;;;12.70;10.77;;;6.40;99.90;;;;;;5012701;28;20416;-62
2021/10/09 01:48:33;;;;;;;15.13;10.70;;;6.40;99.90;;;;;;5011233;28;20411;-64
2021/10/09 01:50:59;;;;;;;10.63;9.53;;;6.40;99.90;;;;;;5011610;28;20400;-61
2021/10/09 01:53:25;;;;;;;12.80;9.40;;;6.40;99.90;;;;;;5011547;28;20419;-63
2021/10/09 01:55:51;;;;;;;11.30;10.17;;;6.40;99.90;;;;;;5012975;28;20404;-62
2021/10/09 01:58:16;;;;;;;11.03;9.50;;;6.30;99.90;;;;;;5014858;28;20219;-62
2021/10/09 02:00:42;;;;;;;11.77;9.80;;;6.30;99.90;;;;;;5014918;28;20435;-65
2021/10/09 02:03:08;;;;;;;13.40;10.50;;;6.30;99.90;;;;;;5015093;28;20213;-62
2021/10/09 02:05:35;;;;;;;14.23;12.07;;;6.20;99.90;;;;;;5015330;28;20634;-61
2021/10/09 02:08:02;;;;;;;17.20;11.17;;;6.20;99.90;;;;;;5014586;28;20447;-64
2021/10/09 02:10:28;;;;;;;12.57;10.87;;;6.20;99.90;;;;;;5014824;28;20742;-62
2021/10/09 02:12:54;;;;;;;14.23;10.97;;;6.20;99.90;;;;;;5014945;28;20851;-60
2021/10/09 02:26:21;;;;;;;11.77;9.70;;;6.00;99.90;;;;;;5006432;28;20429;-61
2021/10/09 02:28:47;;;;;;;11.40;10.27;;;6.00;99.90;;;;;;5014111;28;20434;-64
2021/10/09 02:31:12;;;;;;;12.53;9.60;;;6.00;99.90;;;;;;4997134;28;20211;-64
2021/10/09 02:33:38;;;;;;;7.93;7.07;;;5.90;99.90;;;;;;5014387;28;20236;-64
2021/10/09 02:36:04;;;;;;;9.43;8.63;;;5.90;99.90;;;;;;5014391;28;20172;-64
2021/10/09 02:38:29;;;;;;;10.13;9.13;;;5.90;99.90;;;;;;5013896;28;20217;-64
2021/10/09 02:40:55;;;;;;;9.93;8.00;;;5.90;99.90;;;;;;5014323;28;20176;-64
2021/10/09 02:43:21;;;;;;;13.00;11.00;;;5.80;99.90;;;;;;5014316;28;20172;-64
2021/10/09 02:45:47;;;;;;;11.03;9.20;;;5.80;99.90;;;;;;5014259;28;20966;-62
2021/10/09 02:48:15;;;;;;;12.20;10.43;;;5.70;99.90;;;;;;5013922;28;20198;-64
2021/10/09 02:50:42;;;;;;;17.40;11.50;;;5.70;99.90;;;;;;5014090;28;20240;-63
2021/10/09 02:53:08;;;;;;;11.03;9.67;;;5.70;99.90;;;;;;5014118;28;20489;-63
2021/10/09 02:55:33;;;;;;;11.60;10.50;;;5.60;99.90;;;;;;5014035;28;20964;-63
2021/10/09 02:57:59;;;;;;;11.77;10.43;;;5.50;99.90;;;;;;5013782;28;20247;-63
2021/10/09 03:00:24;;;;;;;15.30;9.80;;;5.50;99.90;;;;;;5013991;28;20596;-63
2021/10/09 03:02:50;;;;;;;13.13;10.30;;;5.50;99.90;;;;;;5013975;28;20572;-63
2021/10/09 03:05:16;;;;;;;10.40;8.97;;;5.50;99.90;;;;;;5013822;28;20182;-63
2021/10/09 03:07:42;;;;;;;12.00;10.27;;;5.50;99.90;;;;;;5012746;28;20270;-63
2021/10/09 03:10:08;;;;;;;14.17;10.00;;;5.40;99.90;;;;;;5013762;28;20421;-64
2021/10/09 03:12:34;;;;;;;12.93;11.60;;;5.40;99.90;;;;;;5013781;28;20574;-62
2021/10/09 03:15:00;;;;;;;13.90;11.57;;;5.40;99.90;;;;;;5013665;28;20550;-64
2021/10/09 03:17:26;;;;;;;11.53;9.53;;;5.40;99.90;;;;;;5013659;28;20169;-64
2021/10/09 03:19:51;;;;;;;10.80;9.70;;;5.30;99.90;;;;;;5013170;28;20197;-64
2021/10/09 03:22:17;;;;;;;13.70;10.93;;;5.30;99.90;;;;;;5013611;28;20413;-63
2021/10/09 03:24:43;;;;;;;13.10;10.33;;;5.30;99.90;;;;;;5015352;28;20182;-65
2021/10/09 03:27:09;;;;;;;13.60;10.23;;;5.20;99.90;;;;;;5027733;28;20202;-64
2021/10/09 03:29:34;;;;;;;12.43;10.50;;;5.20;99.90;;;;;;5026728;28;20440;-64
2021/10/09 03:32:00;;;;;;;12.33;10.73;;;5.10;99.90;;;;;;5027439;28;20171;-64
2021/10/09 03:34:32;;;;;;;15.50;10.50;;;5.10;99.90;;;;;;5008762;28;20231;-63
2021/10/09 03:36:58;;;;;;;13.33;11.17;;;5.00;99.90;;;;;;5025661;28;20174;-63
2021/10/09 03:39:24;;;;;;;13.37;10.33;;;5.10;99.90;;;;;;5008753;28;20468;-63
2021/10/09 03:41:55;;;;;;;14.43;10.80;;;5.10;99.90;;;;;;5026767;28;20443;-64
2021/10/09 03:44:21;;;;;;;14.23;10.23;;;5.10;99.90;;;;;;5026915;28;20201;-65
2021/10/09 03:47:06;;;;;;;14.57;10.67;;;5.00;99.90;;;;;;5009016;28;20448;-63
2021/10/09 03:52:36;;;;;;;14.77;11.63;;;5.00;99.90;;;;;;5025532;28;20431;-64
2021/10/09 03:55:07;;;;;;;10.27;8.37;;;5.00;99.90;;;;;;5024811;28;20449;-64
2021/10/09 03:57:34;;;;;;;11.67;8.50;;;4.90;99.90;;;;;;5024780;28;20901;-63
2021/10/09 03:59:59;;;;;;;12.27;11.00;;;4.90;99.90;;;;;;5023857;28;20540;-64
2021/10/09 04:02:25;;;;;;;11.93;10.10;;;4.80;99.90;;;;;;5024323;28;20401;-63
2021/10/09 04:04:51;;;;;;;15.90;11.60;;;4.80;99.90;;;;;;5023887;28;20170;-64
2021/10/09 04:07:16;;;;;;;12.73;11.43;;;4.70;99.90;;;;;;5023866;28;20256;-64
2021/10/09 04:09:42;;;;;;;13.03;10.00;;;4.70;99.90;;;;;;5022987;28;20192;-64
2021/10/09 04:12:07;;;;;;;12.27;10.87;;;4.70;99.90;;;;;;5023268;28;20518;-64
2021/10/09 04:14:33;;;;;;;13.40;9.60;;;4.70;99.90;;;;;;5022974;28;20193;-63
2021/10/09 04:16:59;;;;;;;15.67;11.57;;;4.60;99.90;;;;;;5021718;28;20165;-64
2021/10/09 04:19:24;;;;;;;11.90;10.20;;;4.60;99.90;;;;;;5020897;28;20200;-64
2021/10/09 04:21:50;;;;;;;13.60;10.20;;;4.60;99.90;;;;;;5021789;28;20212;-64
2021/10/09 04:24:18;;;;;;;11.50;9.40;;;4.60;99.90;;;;;;5003710;28;20213;-64
2021/10/09 04:26:44;;;;;;;13.40;10.17;;;4.60;99.90;;;;;;5002739;28;20269;-64
2021/10/09 04:29:10;;;;;;;11.00;9.90;;;4.60;99.90;;;;;;5002034;28;20498;-63
2021/10/09 04:31:35;;;;;;;14.80;10.30;;;4.60;99.90;;;;;;5020292;28;20439;-64
2021/10/09 04:34:01;;;;;;;10.20;8.53;;;4.40;99.90;;;;;;5020300;28;20201;-64
2021/10/09 04:36:26;;;;;;;14.70;10.23;;;4.40;99.90;;;;;;5002197;28;20180;-64
2021/10/09 04:38:52;;;;;;;13.80;10.17;;;4.40;99.90;;;;;;5001345;28;20232;-63
2021/10/09 04:41:18;;;;;;;11.10;9.77;;;4.40;99.90;;;;;;5020170;28;20191;-64
2021/10/09 04:43:43;;;;;;;13.57;10.27;;;4.40;99.90;;;;;;5002467;28;20177;-64
2021/10/09 04:46:09;;;;;;;20.90;11.83;;;4.40;99.90;;;;;;5019875;28;20196;-64
2021/10/09 04:48:34;;;;;;;11.80;10.30;;;4.30;99.90;;;;;;5019348;28;20169;-63
2021/10/09 04:51:00;;;;;;;13.70;12.27;;;4.30;99.90;;;;;;5021850;28;20736;-64
2021/10/09 04:53:25;;;;;;;13.07;11.30;;;4.20;99.90;;;;;;5021807;28;20641;-64
2021/10/09 04:55:51;;;;;;;12.07;10.33;;;4.30;99.90;;;;;;5020788;28;20658;-64
2021/10/09 04:58:17;;;;;;;14.53;11.70;;;4.20;99.90;;;;;;5019512;28;20165;-63
2021/10/09 05:00:42;;;;;;;16.80;11.73;;;4.30;99.90;;;;;;5018559;28;20195;-65
2021/10/09 05:03:08;;;;;;;17.07;11.90;;;4.30;99.90;;;;;;5018892;28;20172;-65
2021/10/09 05:05:33;;;;;;;18.70;12.93;;;4.40;99.90;;;;;;5019339;28;20633;-64
2021/10/09 05:07:59;;;;;;;15.60;12.27;;;4.30;99.90;;;;;;5018881;28;20192;-64
2021/10/09 05:10:26;;;;;;;16.47;12.47;;;4.30;99.90;;;;;;5018439;28;20275;-64
2021/10/09 05:12:52;;;;;;;19.37;14.57;;;4.30;99.90;;;;;;5019240;28;20173;-63
2021/10/09 05:15:17;;;;;;;17.57;13.40;;;4.40;99.90;;;;;;5019161;28;20484;-63
2021/10/09 05:17:43;;;;;;;18.73;13.80;;;4.30;99.90;;;;;;5018837;28;20261;-64
2021/10/09 05:20:09;;;;;;;20.00;14.33;;;4.40;99.90;;;;;;5018625;28;20247;-64
2021/10/09 05:22:35;;;;;;;12.80;11.30;;;4.40;99.90;;;;;;5019516;28;20178;-64
2021/10/09 05:25:02;;;;;;;17.57;12.07;;;4.30;99.90;;;;;;5018859;28;20423;-65
2021/10/09 05:27:28;;;;;;;15.13;10.10;;;4.40;99.90;;;;;;5018838;28;20411;-64
2021/10/09 05:29:54;;;;;;;12.70;11.40;;;4.40;99.90;;;;;;5000390;28;20486;-64
2021/10/09 05:32:27;;;;;;;14.77;10.73;;;4.40;99.90;;;;;;5004632;28;20415;-64
2021/10/09 05:34:54;;;;;;;13.90;9.83;;;4.40;99.90;;;;;;5021958;28;20219;-64
2021/10/09 05:37:19;;;;;;;12.17;10.50;;;4.40;99.90;;;;;;5021708;28;20408;-64
2021/10/09 05:39:45;;;;;;;13.80;10.93;;;4.40;99.90;;;;;;5020900;28;20462;-64
2021/10/09 05:42:11;;;;;;;14.80;11.33;;;4.40;99.90;;;;;;5021590;28;20228;-63
2021/10/09 05:44:36;;;;;;;19.10;13.57;;;4.40;99.90;;;;;;5021844;28;20589;-63
2021/10/09 05:47:02;;;;;;;18.33;12.83;;;4.30;99.90;;;;;;5021378;28;20212;-64
2021/10/09 05:49:27;;;;;;;21.10;12.60;;;4.20;99.90;;;;;;5020655;28;20189;-64
2021/10/09 05:54:41;;;;;;;18.17;13.00;;;4.20;99.90;;;;;;5021146;28;20193;-63
2021/10/09 05:57:11;;;;;;;16.20;11.97;;;4.20;99.90;;;;;;5020974;28;20174;-64
2021/10/09 06:00:10;;;;;;;10.73;9.40;;;4.10;99.90;;;;;;5020304;28;20436;-64
2021/10/09 06:59:40;;;;;;;19.73;14.37;;;4.60;99.90;;;;;;5017312;28;20450;-64
2021/10/09 07:02:06;;;;;;;24.97;14.90;;;4.70;99.90;;;;;;5017049;28;20413;-64
2021/10/09 07:04:32;;;;;;;17.60;13.67;;;4.80;99.90;;;;;;4999492;28;20177;-63
2021/10/09 07:07:00;;;;;;;19.77;13.97;;;4.90;99.90;;;;;;5017107;28;20169;-63
2021/10/09 07:09:26;;;;;;;21.90;17.27;;;4.90;99.90;;;;;;5015997;28;20199;-63
2021/10/09 07:11:52;;;;;;;22.57;16.10;;;5.00;99.90;;;;;;5017201;28;20480;-65
2021/10/09 07:14:17;;;;;;;29.03;16.80;;;5.20;99.90;;;;;;5017356;28;20220;-64
2021/10/09 07:16:43;;;;;;;24.17;16.90;;;5.30;99.90;;;;;;5017507;28;20195;-64
2021/10/09 07:19:08;;;;;;;23.67;16.27;;;5.30;99.90;;;;;;5017453;28;20242;-64
2021/10/09 07:21:34;;;;;;;23.80;16.20;;;5.40;99.90;;;;;;5018420;28;20664;-63
2021/10/09 07:24:00;;;;;;;26.40;16.67;;;5.50;99.90;;;;;;5018050;28;20681;-64
2021/10/09 07:26:25;;;;;;;23.97;16.67;;;5.60;99.90;;;;;;5017766;28;20182;-64
2021/10/09 07:28:51;;;;;;;24.43;17.50;;;5.70;99.90;;;;;;5019661;28;20197;-64
2021/10/09 07:31:16;;;;;;;24.90;16.43;;;5.80;99.90;;;;;;5021482;28;20566;-64
2021/10/09 07:33:42;;;;;;;24.73;17.37;;;5.90;99.90;;;;;;5023799;28;20177;-64
2021/10/09 07:36:08;;;;;;;27.17;18.17;;;6.00;99.90;;;;;;5006968;28;20245;-64
2021/10/09 07:38:33;;;;;;;22.47;17.17;;;6.10;99.90;;;;;;5024692;28;20176;-63
2021/10/09 07:40:59;;;;;;;27.70;20.03;;;6.20;99.90;;;;;;5026840;28;20207;-64
2021/10/09 07:43:24;;;;;;;24.17;18.60;;;6.40;99.90;;;;;;5023954;28;20171;-64
2021/10/09 07:45:50;;;;;;;31.87;18.87;;;8.00;99.90;;;;;;5024039;28;20238;-64
2021/10/09 07:48:16;;;;;;;29.00;17.83;;;6.80;99.90;;;;;;5024028;28;20269;-65
2021/10/09 07:50:41;;;;;;;22.17;16.30;;;6.90;99.90;;;;;;5024484;28;20198;-63
2021/10/09 07:53:07;;;;;;;23.23;16.50;;;7.10;99.90;;;;;;5025647;28;20175;-64
2021/10/09 07:55:32;;;;;;;28.40;18.10;;;7.30;99.90;;;;;;5026382;28;20207;-64
2021/10/09 07:57:58;;;;;;;30.70;21.17;;;7.60;99.90;;;;;;5027481;28;20318;-64
2021/10/09 08:00:23;;;;;;;28.07;17.87;;;7.80;99.90;;;;;;5027262;28;20216;-63
2021/10/09 08:02:51;;;;;;;30.97;19.43;;;8.00;99.90;;;;;;5027832;28;20243;-64
2021/10/09 08:05:17;;;;;;;37.67;22.10;;;8.30;99.90;;;;;;5026014;28;20177;-65
2021/10/09 08:07:43;;;;;;;24.40;18.70;;;8.50;99.90;;;;;;5024505;28;20913;-64
2021/10/09 08:10:09;;;;;;;21.47;16.50;;;9.30;99.90;;;;;;5023233;28;20429;-64
2021/10/09 08:12:35;;;;;;;26.50;19.03;;;9.20;99.90;;;;;;5022379;28;20462;-64
2021/10/09 08:15:02;;;;;;;25.10;16.53;;;9.70;99.90;;;;;;5022874;28;20463;-65
2021/10/09 08:17:28;;;;;;;23.00;18.17;;;9.80;99.90;;;;;;5021264;28;20235;-65
2021/10/09 08:19:54;;;;;;;21.87;16.43;;;10.40;99.90;;;;;;5019879;28;20424;-65
2021/10/09 08:22:21;;;;;;;33.27;17.20;;;10.50;99.90;;;;;;5018768;28;20431;-65
2021/10/09 08:24:55;;;;;;;21.83;14.77;;;10.70;99.90;;;;;;5001277;28;20818;-65
2021/10/09 08:40:37;;;;;;;13.13;11.67;;;12.60;99.90;;;;;;5015761;28;20215;-65
2021/10/09 08:43:03;;;;;;;14.40;11.50;;;13.00;99.90;;;;;;5015807;28;20411;-64
2021/10/09 08:45:29;;;;;;;16.93;12.67;;;13.20;99.90;;;;;;5016846;28;20173;-65
2021/10/09 08:47:55;;;;;;;17.03;12.80;;;13.80;99.90;;;;;;5018230;28;20184;-64
2021/10/09 08:50:20;;;;;;;15.73;11.17;;;14.10;99.90;;;;;;5018308;28;20209;-65
2021/10/09 08:52:57;;;;;;;13.77;11.40;;;14.20;98.30;;;;;;5018954;28;20261;-65
2021/10/09 08:55:28;;;;;;;15.47;9.80;;;14.40;99.40;;;;;;5021415;28;20237;-65
2021/10/09 08:57:57;;;;;;;12.27;10.90;;;14.70;97.80;;;;;;5023604;28;20499;-64
2021/10/09 09:04:10;;;;;;;14.30;11.17;;;15.60;94.20;;;;;;4926211;29;20439;-66
2021/10/09 09:07:14;;;;;;;13.03;9.40;;;15.50;92.50;;;;;;5028460;28;20430;-65
2021/10/09 09:26:50;;;;;;;10.00;8.07;;;17.80;90.90;;;;;;4966117;28;20466;-65
2021/10/09 09:39:43;;;;;;;11.40;8.30;;;18.40;86.30;;;;;;5018639;28;20480;-66
2021/10/09 09:42:10;;;;;;;11.57;8.40;;;18.70;86.30;;;;;;5002595;28;20875;-66
2021/10/09 09:44:38;;;;;;;10.00;9.10;;;18.80;82.80;;;;;;5020203;28;20412;-65
2021/10/09 09:47:06;;;;;;;8.80;7.90;;;18.70;82.20;;;;;;5021348;28;20412;-66
2021/10/09 09:49:32;;;;;;;8.10;7.40;;;18.80;81.20;;;;;;5022062;28;20432;-65
2021/10/09 09:51:59;;;;;;;8.97;8.07;;;19.30;85.20;;;;;;5023332;28;20442;-66
2021/10/09 09:54:27;;;;;;;9.70;8.70;;;19.00;77.90;;;;;;5023537;28;20550;-66
2021/10/09 09:57:00;;;;;;;9.20;7.20;;;19.30;78.50;;;;;;5006019;28;20439;-66
2021/10/09 09:59:33;;;;;;;9.23;7.47;;;19.70;78.30;;;;;;5022779;28;20435;-65
2021/10/09 10:02:05;;;;;;;9.40;7.57;;;20.00;76.00;;;;;;5023088;28;20427;-66
2021/10/09 10:04:35;;;;;;;8.03;7.23;;;20.50;77.00;;;;;;5022243;28;20416;-66
2021/10/09 10:07:02;;;;;;;6.93;6.33;;;20.50;75.20;;;;;;5021266;28;20462;-66
2021/10/09 10:09:30;;;;;;;8.07;7.37;;;20.60;73.20;;;;;;5019828;28;20498;-66
2021/10/09 10:12:01;;;;;;;7.57;6.90;;;20.60;69.10;;;;;;5018709;28;20422;-66
2021/10/09 10:14:29;;;;;;;8.33;7.40;;;20.80;74.20;;;;;;5016884;28;20487;-67
2021/10/09 10:16:59;;;;;;;7.40;6.80;;;21.00;68.80;;;;;;5016327;28;20813;-66
2021/10/09 10:19:50;;;;;;;7.03;6.43;;;21.20;74.80;;;;;;5014899;28;20439;-66
2021/10/09 10:22:36;;;;;;;8.53;7.73;;;21.50;71.50;;;;;;5015216;28;20431;-66
2021/10/09 10:25:23;;;;;;;7.50;6.80;;;22.20;71.30;;;;;;4997984;28;20431;-67
2021/10/09 10:28:09;;;;;;;7.23;6.57;;;22.90;74.80;;;;;;5016612;28;20404;-67
2021/10/09 10:30:59;;;;;;;8.20;7.40;;;23.60;73.70;;;;;;5018420;28;20972;-66
2021/10/09 10:33:29;;;;;;;8.47;7.60;;;23.70;65.60;;;;;;5006632;28;20424;-67
2021/10/09 10:35:54;;;;;;;8.10;7.50;;;23.70;64.30;;;;;;5020250;28;20447;-67
2021/10/09 10:38:21;;;;;;;11.80;8.30;;;23.60;65.00;;;;;;5020149;28;20405;-67
2021/10/09 10:41:03;;;;;;;8.23;6.13;;;23.70;67.40;;;;;;5022377;28;20738;-67
2021/10/09 10:46:19;;;;;;;7.23;6.53;;;23.90;62.50;;;;;;5025405;28;20420;-67
2021/10/09 10:48:58;;;;;;;8.93;7.23;;;23.90;60.80;;;;;;5023497;28;20412;-67
2021/10/09 10:54:41;;;;;;;5.73;5.33;;;24.20;64.40;;;;;;5021808;28;20471;-67
2021/10/09 10:57:06;;;;;;;7.07;6.40;;;24.70;64.70;;;;;;5017709;28;20412;-67
2021/10/09 11:02:18;;;;;;;7.43;6.83;;;24.90;60.00;;;;;;5016547;28;20723;-67
2021/10/09 11:04:48;;;;;;;10.20;6.23;;;24.50;58.40;;;;;;5015264;28;20412;-68
2021/10/09 11:07:15;;;;;;;7.43;6.70;;;24.40;58.30;;;;;;5014707;28;20404;-68
2021/10/09 11:09:41;;;;;;;7.03;6.27;;;24.60;62.20;;;;;;5014161;28;20427;-68
2021/10/09 11:12:21;;;;;;;8.03;7.03;;;25.20;59.20;;;;;;5016031;28;20408;-67
2021/10/09 11:14:47;;;;;;;7.33;6.63;;;25.50;59.00;;;;;;5018023;28;20448;-67
2021/10/09 11:17:13;;;;;;;6.77;6.17;;;26.20;59.70;;;;;;5017657;28;20412;-68
2021/10/09 11:19:45;;;;;;;8.20;7.50;;;25.60;56.10;;;;;;5017081;28;20186;-68
2021/10/09 11:22:12;;;;;;;6.97;6.40;;;25.60;57.30;;;;;;5000217;28;20181;-68
2021/10/09 11:24:44;;;;;;;8.63;7.20;;;25.10;56.10;;;;;;5018509;28;20774;-67
2021/10/09 11:27:13;;;;;;;7.37;6.77;;;25.10;57.50;;;;;;5020099;28;20434;-68
2021/10/09 11:29:40;;;;;;;7.53;6.20;;;25.50;56.50;;;;;;5019487;28;20500;-68
2021/10/09 11:32:10;;;;;;;10.47;6.50;;;25.60;56.40;;;;;;5022159;28;20408;-68
2021/10/09 11:34:52;;;;;;;9.37;7.97;;;26.00;55.00;;;;;;5022737;28;20594;-68
2021/10/09 11:37:19;;;;;;;8.73;7.93;;;26.20;57.80;;;;;;5022244;28;20411;-67
2021/10/09 11:39:51;;;;;;;7.93;7.13;;;26.40;56.10;;;;;;5019967;28;20448;-68
2021/10/09 11:42:21;;;;;;;9.10;8.37;;;27.00;57.00;;;;;;5017730;28;20412;-68
2021/10/09 11:45:13;;;;;;;8.50;7.33;;;27.60;57.00;;;;;;5015701;28;20408;-68
2021/10/09 11:56:07;;;;;;;8.60;7.90;;;28.40;56.00;;;;;;5014437;28;20462;-68
2021/10/09 11:58:48;;;;;;;7.00;6.50;;;28.70;56.50;;;;;;5015121;28;20852;-68
2021/10/09 12:01:44;;;;;;;7.03;6.43;;;28.90;53.70;;;;;;5013865;28;20408;-68
2021/10/09 12:04:17;;;;;;;7.70;6.83;;;28.80;56.00;;;;;;4995730;28;20482;-68
2021/10/09 12:06:46;;;;;;;10.77;8.17;;;28.90;52.00;;;;;;5020054;28;20920;-68
2021/10/09 12:09:14;;;;;;;8.60;7.70;;;28.80;53.00;;;;;;5021453;28;20476;-69
2021/10/09 12:11:40;;;;;;;9.00;8.10;;;28.90;54.40;;;;;;5024084;28;20450;-69
2021/10/09 12:14:11;;;;;;;8.53;7.80;;;28.80;51.60;;;;;;5019582;28;20440;-69
2021/10/09 12:16:43;;;;;;;8.83;8.07;;;28.10;54.00;;;;;;5020260;28;20220;-69
2021/10/09 12:19:24;;;;;;;9.50;8.63;;;28.60;55.80;;;;;;5022967;28;20431;-69
2021/10/09 12:21:53;;;;;;;8.17;7.47;;;28.80;53.10;;;;;;5022318;28;20422;-69
2021/10/09 12:24:22;;;;;;;8.57;7.77;;;29.20;54.50;;;;;;5020240;28;20820;-69
2021/10/09 12:27:27;;;;;;;8.60;7.90;;;29.20;53.30;;;;;;5020677;28;20637;-69
2021/10/09 12:30:00;;;;;;;7.97;7.30;;;29.40;53.40;;;;;;5018144;28;20436;-69
2021/10/09 12:32:27;;;;;;;9.53;7.40;;;29.30;53.00;;;;;;5014624;28;20404;-69
2021/10/09 12:35:34;;;;;;;8.47;7.60;;;29.90;53.90;;;;;;5013213;28;20967;-70
2021/10/09 12:38:03;;;;;;;8.77;7.87;;;29.80;55.20;;;;;;4999864;28;20805;-69
2021/10/09 12:40:42;;;;;;;10.47;7.70;;;29.30;53.10;;;;;;5013687;28;20450;-69
2021/10/09 12:43:10;;;;;;;11.63;8.30;;;29.20;54.20;;;;;;5012407;28;20473;-69
2021/10/09 12:45:37;;;;;;;9.90;9.00;;;29.20;51.70;;;;;;5012951;28;20412;-69
2021/10/09 12:48:03;;;;;;;13.40;9.83;;;28.90;53.30;;;;;;5014886;28;20866;-68
2021/10/09 12:50:32;;;;;;;9.87;8.57;;;29.20;51.60;;;;;;5014489;28;20837;-69
2021/10/09 12:52:57;;;;;;;8.87;7.00;;;28.90;51.50;;;;;;5014162;28;20412;-69
2021/10/09 12:55:26;;;;;;;11.13;9.97;;;28.80;53.40;;;;;;5015446;28;20512;-69
2021/10/09 12:57:55;;;;;;;9.30;8.37;;;29.10;54.20;;;;;;5019114;28;20193;-69
2021/10/09 13:00:23;;;;;;;12.30;8.50;;;29.70;53.30;;;;;;5020701;28;20424;-69
2021/10/09 13:02:51;;;;;;;9.83;8.73;;;30.00;53.60;;;;;;5021307;28;20404;-70
2021/10/09 13:05:17;;;;;;;9.20;7.80;;;30.30;55.00;;;;;;5021628;28;20993;-70
2021/10/09 13:07:43;;;;;;;10.23;9.43;;;30.60;53.70;;;;;;5021058;28;20416;-68
2021/10/09 13:10:10;;;;;;;10.37;9.37;;;30.30;50.70;;;;;;5020288;28;20428;-69
2021/10/09 13:12:36;;;;;;;10.03;9.10;;;29.60;50.10;;;;;;5020731;28;20192;-70
2021/10/09 13:15:02;;;;;;;12.97;9.63;;;29.70;52.80;;;;;;5021842;28;20964;-70
2021/10/09 13:17:28;;;;;;;12.40;9.80;;;29.10;52.50;;;;;;5021008;28;20396;-70
2021/10/09 13:19:54;;;;;;;10.87;9.87;;;29.20;52.20;;;;;;5019077;28;20189;-69
2021/10/09 13:22:19;;;;;;;14.23;10.60;;;29.40;52.60;;;;;;5019369;28;20169;-70
2021/10/09 13:24:45;;;;;;;11.53;10.50;;;29.60;53.30;;;;;;5021417;28;20259;-69
2021/10/09 13:27:10;;;;;;;11.43;10.17;;;29.90;53.40;;;;;;5004801;28;20173;-69
2021/10/09 13:29:36;;;;;;;10.60;9.50;;;29.60;50.80;;;;;;5020184;28;20204;-69
2021/10/09 13:32:02;;;;;;;11.83;10.73;;;29.30;52.10;;;;;;5021340;28;20239;-69
2021/10/09 13:34:27;;;;;;;11.70;10.60;;;29.20;52.60;;;;;;5022229;28;20203;-70
2021/10/09 13:36:53;;;;;;;12.40;11.20;;;29.30;52.80;;;;;;5021472;28;20166;-70
2021/10/09 13:39:19;;;;;;;10.10;9.23;;;29.60;52.90;;;;;;5021487;28;20284;-69
2021/10/09 13:41:44;;;;;;;11.73;10.50;;;29.50;54.00;;;;;;5022120;28;20669;-70
2021/10/09 13:44:10;;;;;;;11.50;10.30;;;29.20;52.20;;;;;;5020949;28;20213;-70
2021/10/09 13:46:37;;;;;;;13.60;10.87;;;29.30;54.30;;;;;;5002814;28;20520;-70
2021/10/09 13:49:06;;;;;;;14.50;12.53;;;29.30;52.90;;;;;;5019695;28;20674;-69
2021/10/09 13:51:32;;;;;;;12.97;11.67;;;28.80;51.80;;;;;;5023447;28;20412;-70
2021/10/09 13:53:57;;;;;;;11.93;10.67;;;29.00;55.20;;;;;;5024478;28;20412;-70
2021/10/09 13:56:23;;;;;;;11.07;9.97;;;28.70;53.10;;;;;;5024530;28;20542;-69
2021/10/09 13:58:48;;;;;;;14.60;11.60;;;28.50;52.90;;;;;;5024423;28;20189;-70
2021/10/09 14:01:15;;;;;;;11.07;9.97;;;28.40;54.20;;;;;;5023370;28;20173;-70
2021/10/09 14:03:41;;;;;;;12.30;9.50;;;28.50;54.10;;;;;;5023649;28;20196;-69
2021/10/09 14:06:07;;;;;;;12.20;10.53;;;28.80;53.20;;;;;;5024749;28;20419;-70
2021/10/09 14:08:33;;;;;;;14.77;13.20;;;28.10;52.10;;;;;;5024140;28;20400;-70
2021/10/09 14:11:00;;;;;;;12.50;11.17;;;27.80;52.90;;;;;;5022404;28;20576;-69
2021/10/09 14:13:26;;;;;;;12.10;10.83;;;27.30;53.40;;;;;;5018335;28;20662;-68
2021/10/09 14:15:52;;;;;;;11.93;10.77;;;26.90;54.10;;;;;;5015859;28;20823;-69
2021/10/09 14:18:18;;;;;;;12.13;10.70;;;27.00;53.90;;;;;;5006393;28;20474;-69
2021/10/09 14:20:49;;;;;;;14.60;10.43;;;27.10;54.90;;;;;;5019680;28;20212;-69
2021/10/09 14:23:15;;;;;;;11.20;10.10;;;26.70;53.90;;;;;;5019788;28;20440;-70
2021/10/09 14:25:41;;;;;;;13.40;11.67;;;26.70;54.10;;;;;;5018920;28;20462;-69
2021/10/09 14:28:09;;;;;;;14.43;12.93;;;26.40;53.40;;;;;;5017118;28;20451;-69
2021/10/09 14:30:35;;;;;;;12.07;10.97;;;25.80;53.30;;;;;;5015052;28;20440;-69
2021/10/09 14:33:01;;;;;;;13.93;11.73;;;25.50;55.70;;;;;;5014908;28;20482;-70
2021/10/09 14:35:27;;;;;;;13.30;11.03;;;25.40;54.40;;;;;;5015169;28;20551;-69
2021/10/09 14:37:52;;;;;;;11.83;10.83;;;25.40;56.10;;;;;;5014918;28;20169;-69
2021/10/09 14:40:18;;;;;;;12.13;10.17;;;25.30;56.00;;;;;;5014826;28;20201;-69
2021/10/09 14:42:45;;;;;;;12.00;10.80;;;25.30;55.10;;;;;;5015028;28;20173;-69
2021/10/09 14:45:11;;;;;;;10.47;9.43;;;25.50;56.60;;;;;;5015129;28;20791;-69
2021/10/09 14:48:20;;;;;;;10.20;9.30;;;25.50;56.90;;;;;;5013792;28;20404;-69
2021/10/09 15:01:34;;;;;;;12.03;10.00;;;24.80;55.40;;;;;;5019986;28;20460;-69
2021/10/09 15:20:06;;;;;;;10.27;9.27;;;21.40;57.60;;;;;;5025867;28;20435;-68
2021/10/09 15:22:32;;;;;;;9.40;8.50;;;21.10;58.40;;;;;;5027359;28;20408;-69
2021/10/09 15:25:05;;;;;;;10.00;8.60;;;20.80;57.80;;;;;;5028244;28;20405;-69